Time;durP1;ratioP1;P1;durP2;ratioP2;P2;SDS_P1;SDS_P2;PMS_P1;PMS_P2;Temp;Humidity;BMP_temperature;BMP_pressure;BME280_temperature;BME280_humidity;BME280_pressure;Samples;Min_cycle;Max_cycle;Signal;HPM_P1;HPM_P2
2023/08/02 00:02:04;;;;;;;846.65;765.97;;;;;;;;;;6098568;23;20041;-66
2023/08/02 00:04:31;;;;;;;861.83;779.58;;;;;;;;;;6103463;23;20102;-67
2023/08/02 00:06:57;;;;;;;848.55;768.28;;;;;;;;;;6104011;23;20021;-66
2023/08/02 00:09:24;;;;;;;861.35;778.47;;;;;;;;;;6102520;23;20102;-66
2023/08/02 00:11:51;;;;;;;833.30;753.13;;;;;;;;;;6100081;23;20498;-66
2023/08/02 00:14:17;;;;;;;836.33;756.47;;;;;;;;;;6102599;23;20098;-68
2023/08/02 00:16:44;;;;;;;836.88;756.33;;;;;;;;;;6102662;23;20034;-66
2023/08/02 00:19:11;;;;;;;855.90;773.97;;;;;;;;;;6102558;23;20024;-67
2023/08/02 00:21:40;;;;;;;842.78;761.70;;;;;;;;;;6100239;23;20026;-67
2023/08/02 00:24:07;;;;;;;875.75;789.90;;;;;;;;;;6103092;23;20014;-66
2023/08/02 00:26:34;;;;;;;857.22;775.90;;;;;;;;;;6103359;23;20018;-66
2023/08/02 00:29:01;;;;;;;846.85;765.78;;;;;;;;;;6100682;23;20014;-67
2023/08/02 00:31:27;;;;;;;858.55;777.35;;;;;;;;;;6100578;23;20038;-66
2023/08/02 00:33:54;;;;;;;851.00;770.50;;;;;;;;;;6100867;23;20022;-67
2023/08/02 00:36:21;;;;;;;843.88;762.63;;;;;;;;;;6102994;23;20022;-67
2023/08/02 00:38:47;;;;;;;839.65;759.85;;;;;;;;;;6099328;23;20023;-66
2023/08/02 00:41:14;;;;;;;844.03;763.33;;;;;;;;;;6101460;23;20023;-66
2023/08/02 00:43:42;;;;;;;834.42;754.30;;;;;;;;;;6100714;23;20050;-67
2023/08/02 00:46:10;;;;;;;824.63;743.65;;;;;;;;;;6101747;23;20070;-67
2023/08/02 00:48:37;;;;;;;826.60;745.22;;;;;;;;;;6101049;23;20034;-67
2023/08/02 00:51:04;;;;;;;838.30;753.63;;;;;;;;;;6101788;23;20014;-67
2023/08/02 00:53:31;;;;;;;839.15;759.20;;;;;;;;;;6100071;23;20015;-67
2023/08/02 00:55:58;;;;;;;837.30;756.28;;;;;;;;;;6098318;23;20022;-67
2023/08/02 00:58:24;;;;;;;842.97;762.25;;;;;;;;;;6098699;23;20021;-68
2023/08/02 01:00:51;;;;;;;846.28;765.38;;;;;;;;;;6075205;23;20111;-66
2023/08/02 01:03:18;;;;;;;855.70;772.85;;;;;;;;;;6100922;23;20073;-67
2023/08/02 01:05:55;;;;;;;840.08;758.92;;;;;;;;;;6097724;23;20109;-67
2023/08/02 01:08:31;;;;;;;825.47;744.22;;;;;;;;;;6097802;23;20336;-67
2023/08/02 01:11:04;;;;;;;845.70;764.47;;;;;;;;;;6074327;23;20034;-67
2023/08/02 01:13:33;;;;;;;825.78;745.88;;;;;;;;;;6098683;23;20022;-67
2023/08/02 01:16:00;;;;;;;823.33;743.40;;;;;;;;;;6096668;23;20120;-68
2023/08/02 01:18:27;;;;;;;833.40;751.83;;;;;;;;;;6098571;23;20034;-68
2023/08/02 01:20:53;;;;;;;828.88;748.10;;;;;;;;;;6098328;23;20046;-66
2023/08/02 01:23:20;;;;;;;832.10;750.70;;;;;;;;;;6096331;23;20018;-67
2023/08/02 01:25:47;;;;;;;829.63;748.00;;;;;;;;;;6096519;23;20019;-67
2023/08/02 01:28:17;;;;;;;824.13;743.70;;;;;;;;;;6096400;23;20050;-66
2023/08/02 01:30:44;;;;;;;830.88;749.25;;;;;;;;;;6096692;23;20022;-67
2023/08/02 01:33:11;;;;;;;850.85;764.97;;;;;;;;;;6096107;23;20049;-67
2023/08/02 01:35:38;;;;;;;825.05;745.03;;;;;;;;;;6096221;23;20014;-67
2023/08/02 01:38:04;;;;;;;823.15;742.60;;;;;;;;;;6094220;23;20441;-67
2023/08/02 01:40:31;;;;;;;817.65;737.70;;;;;;;;;;6095785;23;20022;-66
2023/08/02 01:42:58;;;;;;;824.13;743.58;;;;;;;;;;6094127;23;20028;-67
2023/08/02 01:45:25;;;;;;;830.33;749.15;;;;;;;;;;6094646;23;20022;-67
2023/08/02 01:47:51;;;;;;;825.03;744.13;;;;;;;;;;6095855;23;20018;-68
2023/08/02 01:50:18;;;;;;;830.65;748.47;;;;;;;;;;6096085;23;20046;-66
2023/08/02 01:52:48;;;;;;;830.47;749.17;;;;;;;;;;6095170;23;20053;-64
2023/08/02 01:55:16;;;;;;;828.05;747.05;;;;;;;;;;6095617;23;20018;-62
2023/08/02 01:57:43;;;;;;;829.47;749.13;;;;;;;;;;6095726;23;20385;-63
2023/08/02 02:00:12;;;;;;;835.00;751.08;;;;;;;;;;6095603;23;20027;-65
2023/08/02 02:02:38;;;;;;;848.00;763.45;;;;;;;;;;6143489;23;20428;-66
2023/08/02 02:05:05;;;;;;;848.40;765.05;;;;;;;;;;6128307;23;20025;-66
2023/08/02 02:07:32;;;;;;;833.67;753.95;;;;;;;;;;6154325;23;20024;-66
2023/08/02 02:10:00;;;;;;;836.03;754.53;;;;;;;;;;6128717;23;20049;-66
2023/08/02 02:12:27;;;;;;;844.03;762.40;;;;;;;;;;6155208;23;20100;-70
2023/08/02 02:14:53;;;;;;;841.17;760.17;;;;;;;;;;6129241;23;20396;-66
2023/08/02 02:17:21;;;;;;;841.15;760.72;;;;;;;;;;6128859;23;20314;-67
2023/08/02 02:19:47;;;;;;;828.60;747.90;;;;;;;;;;6129092;23;20032;-66
2023/08/02 02:22:14;;;;;;;827.80;744.85;;;;;;;;;;6155325;23;20014;-65
2023/08/02 02:24:40;;;;;;;833.38;751.47;;;;;;;;;;6128905;23;20056;-66
2023/08/02 02:27:07;;;;;;;842.78;757.55;;;;;;;;;;6155209;23;20329;-66
2023/08/02 02:29:33;;;;;;;820.35;741.17;;;;;;;;;;6129492;23;20025;-66
2023/08/02 02:32:00;;;;;;;824.00;743.67;;;;;;;;;;6154944;23;20060;-65
2023/08/02 02:34:27;;;;;;;830.05;749.33;;;;;;;;;;6128679;23;20375;-66
2023/08/02 02:36:53;;;;;;;832.80;753.08;;;;;;;;;;6128612;23;20072;-65
2023/08/02 02:39:20;;;;;;;836.10;753.17;;;;;;;;;;6129006;23;20041;-65
2023/08/02 02:41:47;;;;;;;842.10;760.50;;;;;;;;;;6155881;23;20027;-66
2023/08/02 02:44:13;;;;;;;825.85;744.60;;;;;;;;;;6154529;23;20068;-65
2023/08/02 02:46:40;;;;;;;833.45;752.67;;;;;;;;;;6128708;23;20414;-67
2023/08/02 02:49:07;;;;;;;824.38;743.45;;;;;;;;;;6128221;23;20014;-67
2023/08/02 02:51:33;;;;;;;833.25;752.15;;;;;;;;;;6154758;23;20348;-67
2023/08/02 02:54:00;;;;;;;827.67;746.15;;;;;;;;;;6128908;23;20026;-67
2023/08/02 02:56:26;;;;;;;821.67;741.65;;;;;;;;;;6155130;23;20018;-66
2023/08/02 02:58:53;;;;;;;823.53;743.50;;;;;;;;;;6128722;23;20072;-66
2023/08/02 03:01:21;;;;;;;821.53;740.88;;;;;;;;;;6152896;23;20014;-67
2023/08/02 03:03:47;;;;;;;822.70;741.90;;;;;;;;;;6099837;23;20022;-66
2023/08/02 03:06:14;;;;;;;821.67;738.25;;;;;;;;;;6125246;23;20014;-66
2023/08/02 03:08:41;;;;;;;822.38;742.35;;;;;;;;;;6125275;23;20046;-66
2023/08/02 03:11:07;;;;;;;815.58;735.88;;;;;;;;;;6125172;23;20145;-67
2023/08/02 03:13:34;;;;;;;818.10;737.97;;;;;;;;;;6125089;23;20017;-67
2023/08/02 03:16:01;;;;;;;812.03;732.00;;;;;;;;;;6124731;23;20044;-68
2023/08/02 03:18:27;;;;;;;810.33;729.45;;;;;;;;;;6124522;23;20097;-68
2023/08/02 03:20:54;;;;;;;802.50;722.72;;;;;;;;;;6125097;23;20053;-67
2023/08/02 03:23:21;;;;;;;800.03;720.08;;;;;;;;;;6124589;23;20384;-68
2023/08/02 03:25:47;;;;;;;801.80;722.15;;;;;;;;;;6098893;23;20499;-68
2023/08/02 03:28:14;;;;;;;790.42;710.60;;;;;;;;;;6125181;23;20513;-68
2023/08/02 03:30:40;;;;;;;810.47;728.67;;;;;;;;;;6124870;23;20073;-68
2023/08/02 03:33:07;;;;;;;810.40;725.97;;;;;;;;;;6125088;23;20018;-67
2023/08/02 03:35:34;;;;;;;792.90;713.20;;;;;;;;;;6099460;23;20046;-66
2023/08/02 03:38:00;;;;;;;797.95;718.58;;;;;;;;;;6125026;23;20025;-66
2023/08/02 03:40:27;;;;;;;787.17;707.15;;;;;;;;;;6124991;23;20018;-67
2023/08/02 03:42:53;;;;;;;784.50;706.35;;;;;;;;;;6124821;23;20014;-66
2023/08/02 03:45:20;;;;;;;804.28;722.17;;;;;;;;;;6124956;23;20026;-72
2023/08/02 03:47:46;;;;;;;792.25;711.28;;;;;;;;;;6125202;23;20030;-68
2023/08/02 03:50:13;;;;;;;791.58;711.60;;;;;;;;;;6098592;23;20018;-68
2023/08/02 03:52:40;;;;;;;797.20;715.65;;;;;;;;;;6124837;23;20017;-67
2023/08/02 03:55:06;;;;;;;789.47;709.35;;;;;;;;;;6124586;23;20017;-66
2023/08/02 03:57:33;;;;;;;790.50;710.78;;;;;;;;;;6098759;23;20026;-67
2023/08/02 04:00:00;;;;;;;789.45;709.17;;;;;;;;;;6125028;23;20017;-67
2023/08/02 04:02:26;;;;;;;783.15;704.50;;;;;;;;;;6125099;23;20065;-67
2023/08/02 04:04:53;;;;;;;799.92;719.55;;;;;;;;;;6124856;23;20444;-66
2023/08/02 04:07:21;;;;;;;797.70;718.05;;;;;;;;;;6124681;23;20463;-66
2023/08/02 04:09:48;;;;;;;796.97;716.92;;;;;;;;;;6123939;23;20077;-66
2023/08/02 04:12:17;;;;;;;816.33;730.42;;;;;;;;;;6098700;23;20038;-67
2023/08/02 04:14:44;;;;;;;791.22;712.30;;;;;;;;;;6099170;23;20037;-67
2023/08/02 04:17:10;;;;;;;795.88;716.15;;;;;;;;;;6124089;23;20392;-66
2023/08/02 04:19:37;;;;;;;800.33;720.08;;;;;;;;;;6124471;23;20026;-66
2023/08/02 04:22:03;;;;;;;804.47;724.20;;;;;;;;;;6098634;23;20021;-66
2023/08/02 04:24:30;;;;;;;825.22;744.38;;;;;;;;;;6098514;23;20057;-66
2023/08/02 04:26:57;;;;;;;855.58;774.10;;;;;;;;;;6099571;23;20026;-66
2023/08/02 04:29:23;;;;;;;898.67;815.45;;;;;;;;;;6099106;23;20021;-66
2023/08/02 04:31:50;;;;;;;932.20;843.90;;;;;;;;;;6098114;23;20026;-70
2023/08/02 04:34:17;;;;;;;968.40;881.22;;;;;;;;;;6124694;23;20029;-68
2023/08/02 04:36:44;;;;;;;1000.15;908.85;;;;;;;;;;6098656;23;20527;-66
2023/08/02 04:39:11;;;;;;;1014.15;921.67;;;;;;;;;;6124584;23;20021;-69
2023/08/02 04:41:38;;;;;;;1019.28;929.78;;;;;;;;;;6099058;23;20018;-65
2023/08/02 04:44:04;;;;;;;998.38;911.30;;;;;;;;;;6124407;23;20017;-65
2023/08/02 04:46:31;;;;;;;1011.63;920.83;;;;;;;;;;6098639;23;20441;-65
2023/08/02 04:48:58;;;;;;;989.97;902.88;;;;;;;;;;6124498;23;20109;-70
2023/08/02 04:51:25;;;;;;;979.10;891.85;;;;;;;;;;6098236;23;20041;-70
2023/08/02 04:53:51;;;;;;;979.88;892.20;;;;;;;;;;6124696;23;20018;-69
2023/08/02 04:56:18;;;;;;;989.40;898.35;;;;;;;;;;6097686;23;20022;-67
2023/08/02 04:58:45;;;;;;;1000.88;912.20;;;;;;;;;;6098528;23;20025;-66
2023/08/02 05:01:12;;;;;;;1011.08;922.08;;;;;;;;;;6123565;23;20018;-68
2023/08/02 05:03:39;;;;;;;1024.45;934.53;;;;;;;;;;6123762;23;20061;-69
2023/08/02 05:06:05;;;;;;;1037.82;942.90;;;;;;;;;;6097798;23;20026;-73
2023/08/02 05:08:34;;;;;;;1050.10;957.75;;;;;;;;;;6124465;23;20014;-69
2023/08/02 05:11:03;;;;;;;1055.75;964.03;;;;;;;;;;6097791;23;20018;-68
2023/08/02 05:13:30;;;;;;;1047.88;957.13;;;;;;;;;;6123812;23;20014;-69
2023/08/02 05:15:57;;;;;;;1039.63;950.13;;;;;;;;;;6124208;23;20025;-68
2023/08/02 05:18:23;;;;;;;1044.15;952.28;;;;;;;;;;6097985;23;20022;-67
2023/08/02 05:20:50;;;;;;;1038.25;948.78;;;;;;;;;;6098940;23;20440;-70
2023/08/02 05:23:17;;;;;;;1058.22;967.03;;;;;;;;;;6125142;23;20089;-66
2023/08/02 05:25:43;;;;;;;1065.93;974.30;;;;;;;;;;6099957;23;20022;-66
2023/08/02 05:28:10;;;;;;;1068.32;976.85;;;;;;;;;;6126375;23;20096;-67
2023/08/02 05:30:37;;;;;;;1083.13;989.28;;;;;;;;;;6100209;23;20080;-66
2023/08/02 05:33:03;;;;;;;1098.72;996.90;;;;;;;;;;6126589;23;20022;-64
2023/08/02 05:35:30;;;;;;;1104.93;999.90;;;;;;;;;;6126135;23;20016;-63
2023/08/02 05:37:57;;;;;;;1104.00;999.55;;;;;;;;;;6125832;23;20040;-67
2023/08/02 05:40:23;;;;;;;1120.78;999.90;;;;;;;;;;6125441;23;20322;-65
2023/08/02 05:42:50;;;;;;;1135.05;999.90;;;;;;;;;;6099957;23;20022;-66
2023/08/02 05:45:17;;;;;;;1132.72;999.90;;;;;;;;;;6125903;23;20109;-66
2023/08/02 05:47:44;;;;;;;1140.53;999.90;;;;;;;;;;6126028;23;20018;-70
2023/08/02 05:50:10;;;;;;;1139.50;999.90;;;;;;;;;;6125572;23;20092;-65
2023/08/02 05:52:37;;;;;;;1134.82;999.90;;;;;;;;;;6099604;23;20092;-66
2023/08/02 05:55:04;;;;;;;1131.75;999.90;;;;;;;;;;6099450;23;20025;-64
2023/08/02 05:57:30;;;;;;;1144.03;999.90;;;;;;;;;;6099967;23;20021;-66
2023/08/02 05:59:57;;;;;;;1143.63;999.90;;;;;;;;;;6100364;23;20045;-67
2023/08/02 06:02:24;;;;;;;1145.57;999.90;;;;;;;;;;6109975;23;20042;-69
2023/08/02 06:04:50;;;;;;;1156.35;999.90;;;;;;;;;;6125950;23;20620;-67
2023/08/02 06:07:17;;;;;;;1152.90;999.90;;;;;;;;;;6125236;23;20018;-69
2023/08/02 06:09:44;;;;;;;1169.72;999.90;;;;;;;;;;6125336;23;20018;-64
2023/08/02 06:12:10;;;;;;;1180.38;999.90;;;;;;;;;;6125815;23;20073;-67
2023/08/02 06:14:37;;;;;;;1179.80;999.90;;;;;;;;;;6125359;23;20036;-65
2023/08/02 06:17:03;;;;;;;1179.57;999.90;;;;;;;;;;6125323;23;20014;-66
2023/08/02 06:19:30;;;;;;;1186.63;999.90;;;;;;;;;;6123939;23;20028;-65
2023/08/02 06:21:57;;;;;;;1181.43;999.90;;;;;;;;;;6125733;23;20603;-65
2023/08/02 06:24:24;;;;;;;1189.30;999.90;;;;;;;;;;6125129;23;20022;-70
2023/08/02 06:26:51;;;;;;;1180.90;999.90;;;;;;;;;;6125893;23;20026;-68
2023/08/02 06:29:17;;;;;;;1183.10;999.90;;;;;;;;;;6125724;23;20081;-67
2023/08/02 06:31:44;;;;;;;1185.35;999.90;;;;;;;;;;6125591;23;20014;-69
2023/08/02 06:34:11;;;;;;;1199.05;999.90;;;;;;;;;;6123796;23;20024;-73
2023/08/02 06:36:41;;;;;;;1195.72;999.90;;;;;;;;;;6124295;23;20519;-68
2023/08/02 06:39:08;;;;;;;1202.45;999.90;;;;;;;;;;6125182;23;20452;-66
2023/08/02 06:41:34;;;;;;;1200.25;999.90;;;;;;;;;;6125538;23;20029;-68
2023/08/02 06:44:05;;;;;;;1196.38;999.90;;;;;;;;;;6123878;23;20018;-65
2023/08/02 06:46:32;;;;;;;1201.30;999.90;;;;;;;;;;6123599;23;20101;-70
2023/08/02 06:48:59;;;;;;;1194.63;999.90;;;;;;;;;;6124864;23;20440;-67
2023/08/02 06:51:26;;;;;;;1198.03;999.90;;;;;;;;;;6124092;23;20026;-67
2023/08/02 06:53:57;;;;;;;1186.40;999.90;;;;;;;;;;6126139;23;20022;-67
2023/08/02 06:56:25;;;;;;;1188.45;999.90;;;;;;;;;;6099590;23;20396;-66
2023/08/02 06:58:52;;;;;;;1169.32;999.90;;;;;;;;;;6123731;23;20344;-67
2023/08/02 07:01:20;;;;;;;1159.78;999.90;;;;;;;;;;6124933;23;20412;-66
2023/08/02 07:03:47;;;;;;;1128.15;999.90;;;;;;;;;;6100579;23;20472;-66
2023/08/02 07:06:15;;;;;;;1136.07;999.90;;;;;;;;;;6099425;23;20478;-67
2023/08/02 07:08:42;;;;;;;1135.43;999.90;;;;;;;;;;6099745;23;20029;-67
2023/08/02 07:11:09;;;;;;;1127.70;999.90;;;;;;;;;;6099379;23;20318;-66
2023/08/02 07:13:48;;;;;;;1133.80;999.90;;;;;;;;;;6124961;23;20361;-66
2023/08/02 07:16:14;;;;;;;1154.97;999.90;;;;;;;;;;6099141;23;20105;-65
2023/08/02 07:18:41;;;;;;;1165.53;999.90;;;;;;;;;;6099722;23;20018;-66
2023/08/02 07:21:08;;;;;;;1177.38;999.90;;;;;;;;;;6124747;23;20022;-66
2023/08/02 07:23:35;;;;;;;1177.50;999.90;;;;;;;;;;6125306;23;20018;-64
2023/08/02 07:26:03;;;;;;;1177.55;999.90;;;;;;;;;;6125051;23;20097;-67
2023/08/02 07:28:29;;;;;;;1186.93;999.90;;;;;;;;;;6099176;23;20017;-65
2023/08/02 07:31:06;;;;;;;1179.55;999.90;;;;;;;;;;6099357;23;20025;-67
2023/08/02 07:33:33;;;;;;;1172.80;999.90;;;;;;;;;;6099645;23;20447;-65
2023/08/02 07:36:00;;;;;;;1153.80;999.90;;;;;;;;;;6125484;23;20048;-66
2023/08/02 07:38:26;;;;;;;1151.78;999.90;;;;;;;;;;6099267;23;20065;-67
2023/08/02 07:40:53;;;;;;;1141.82;999.90;;;;;;;;;;6125189;23;20014;-70
2023/08/02 07:43:20;;;;;;;1126.10;999.90;;;;;;;;;;6098535;23;20022;-65
2023/08/02 07:45:46;;;;;;;1128.88;999.90;;;;;;;;;;6124405;23;20065;-66
2023/08/02 07:48:14;;;;;;;1150.43;999.90;;;;;;;;;;6124525;23;20437;-66
2023/08/02 07:50:40;;;;;;;1150.50;999.90;;;;;;;;;;6099492;23;20429;-66
2023/08/02 07:53:07;;;;;;;1145.68;999.90;;;;;;;;;;6125516;23;20022;-65
2023/08/02 07:55:34;;;;;;;1138.03;999.90;;;;;;;;;;6124155;23;20046;-66
2023/08/02 07:58:00;;;;;;;1124.18;999.90;;;;;;;;;;6124610;23;20045;-65
2023/08/02 08:00:27;;;;;;;1119.07;999.90;;;;;;;;;;6098689;23;20049;-65
2023/08/02 08:02:53;;;;;;;1118.03;999.90;;;;;;;;;;6125276;23;20018;-66
2023/08/02 08:05:20;;;;;;;1110.38;999.90;;;;;;;;;;6124338;23;20014;-67
2023/08/02 08:07:47;;;;;;;1101.05;999.90;;;;;;;;;;6124338;23;20018;-67
2023/08/02 08:10:13;;;;;;;1097.85;998.95;;;;;;;;;;6098519;23;20053;-66
2023/08/02 08:12:40;;;;;;;1102.97;999.90;;;;;;;;;;6124977;23;20014;-65
2023/08/02 08:15:07;;;;;;;1103.32;999.90;;;;;;;;;;6124690;23;20396;-66
2023/08/02 08:17:34;;;;;;;1101.93;999.85;;;;;;;;;;6098915;23;20084;-67
2023/08/02 08:20:03;;;;;;;1094.47;998.47;;;;;;;;;;6124044;23;20077;-65
2023/08/02 08:22:29;;;;;;;1123.63;999.90;;;;;;;;;;6074704;23;20036;-66
2023/08/02 08:24:56;;;;;;;1082.80;990.22;;;;;;;;;;6098642;23;20018;-65
2023/08/02 08:27:22;;;;;;;1085.57;992.05;;;;;;;;;;6098972;23;20030;-68
2023/08/02 08:29:49;;;;;;;1079.93;983.92;;;;;;;;;;6125103;23;20096;-65
2023/08/02 08:32:16;;;;;;;1075.90;984.25;;;;;;;;;;6124532;23;20336;-66
2023/08/02 08:34:43;;;;;;;1062.30;970.47;;;;;;;;;;6124164;23;20028;-65
2023/08/02 08:37:10;;;;;;;1085.90;993.00;;;;;;;;;;6098257;23;20033;-72
2023/08/02 08:39:39;;;;;;;1072.93;980.40;;;;;;;;;;6124291;23;20348;-67
2023/08/02 08:42:07;;;;;;;1089.80;994.42;;;;;;;;;;6098335;23;20101;-71
2023/08/02 08:44:37;;;;;;;1075.40;983.08;;;;;;;;;;6099063;23;20018;-69
2023/08/02 08:47:07;;;;;;;1082.28;988.72;;;;;;;;;;6098602;23;20051;-68
2023/08/02 08:49:34;;;;;;;1079.10;986.60;;;;;;;;;;6124466;23;20045;-68
2023/08/02 08:52:05;;;;;;;1080.72;989.30;;;;;;;;;;6098976;23;20045;-66
2023/08/02 08:54:34;;;;;;;1080.50;988.67;;;;;;;;;;6099289;23;20037;-65
2023/08/02 08:57:02;;;;;;;1074.18;982.97;;;;;;;;;;6126606;23;20010;-65
2023/08/02 08:59:29;;;;;;;1074.13;982.70;;;;;;;;;;6101145;23;20026;-66
2023/08/02 09:01:57;;;;;;;1082.75;990.15;;;;;;;;;;6104505;23;20034;-64
2023/08/02 09:04:24;;;;;;;1087.47;994.58;;;;;;;;;;6126272;23;20377;-68
2023/08/02 09:06:51;;;;;;;1081.78;989.17;;;;;;;;;;6126853;23;20412;-67
2023/08/02 09:09:18;;;;;;;1081.80;986.60;;;;;;;;;;6126775;23;20095;-67
2023/08/02 09:11:45;;;;;;;1078.45;987.28;;;;;;;;;;6127180;23;20030;-66
2023/08/02 09:14:12;;;;;;;1074.45;983.35;;;;;;;;;;6126585;23;20029;-66
2023/08/02 09:17:05;;;;;;;1078.20;986.95;;;;;;;;;;6126507;23;20046;-65
2023/08/02 09:19:33;;;;;;;1071.43;980.08;;;;;;;;;;6119423;23;20097;-65
2023/08/02 09:22:09;;;;;;;1076.07;984.13;;;;;;;;;;6125090;23;20033;-69
2023/08/02 09:24:36;;;;;;;1077.53;985.25;;;;;;;;;;6126529;23;20049;-69
2023/08/02 09:27:04;;;;;;;1073.00;981.78;;;;;;;;;;6126282;23;20021;-68
2023/08/02 09:29:50;;;;;;;1064.57;973.58;;;;;;;;;;6127022;23;20065;-70
2023/08/02 09:32:17;;;;;;;1066.15;975.80;;;;;;;;;;6125177;23;20325;-67
2023/08/02 09:34:45;;;;;;;1064.47;972.97;;;;;;;;;;6125088;23;20105;-67
2023/08/02 09:37:12;;;;;;;1062.60;971.72;;;;;;;;;;6126426;23;20396;-67
2023/08/02 09:39:39;;;;;;;1068.55;976.20;;;;;;;;;;6125962;23;20018;-68
2023/08/02 09:42:13;;;;;;;1073.30;980.13;;;;;;;;;;6125277;23;20018;-68
2023/08/02 09:44:41;;;;;;;1066.18;975.50;;;;;;;;;;6126704;23;20018;-68
2023/08/02 09:47:09;;;;;;;1080.75;987.55;;;;;;;;;;6125713;23;20013;-68
2023/08/02 09:49:35;;;;;;;1082.75;991.05;;;;;;;;;;6124646;23;20069;-67
2023/08/02 09:52:02;;;;;;;1074.13;982.17;;;;;;;;;;6126204;23;20089;-72
2023/08/02 09:54:29;;;;;;;1076.00;984.78;;;;;;;;;;6126041;23;20890;-68
2023/08/02 09:56:56;;;;;;;1098.25;999.72;;;;;;;;;;6126259;23;20046;-70
2023/08/02 09:59:25;;;;;;;1096.45;998.88;;;;;;;;;;6124575;23;20025;-69
2023/08/02 10:01:51;;;;;;;1080.78;987.60;;;;;;;;;;6124142;23;20101;-69
2023/08/02 10:04:19;;;;;;;1095.45;998.50;;;;;;;;;;6126140;23;20033;-68
2023/08/02 10:06:52;;;;;;;1096.63;999.13;;;;;;;;;;6124872;23;20067;-72
2023/08/02 10:09:20;;;;;;;1105.20;999.90;;;;;;;;;;6126021;23;20022;-69
2023/08/02 10:11:47;;;;;;;1104.82;999.90;;;;;;;;;;6126444;23;20039;-72
2023/08/02 10:14:14;;;;;;;1094.68;998.95;;;;;;;;;;6124573;23;20113;-68
2023/08/02 10:16:40;;;;;;;1087.75;995.33;;;;;;;;;;6124650;23;20428;-69
2023/08/02 10:19:08;;;;;;;1096.63;998.53;;;;;;;;;;6126042;23;20326;-68
2023/08/02 10:21:35;;;;;;;1100.97;999.90;;;;;;;;;;6125494;23;20345;-71
2023/08/02 10:24:02;;;;;;;1097.50;999.83;;;;;;;;;;6124822;23;20065;-72
2023/08/02 10:26:30;;;;;;;1081.93;990.78;;;;;;;;;;6124716;23;20462;-68
2023/08/02 10:28:57;;;;;;;1093.40;998.45;;;;;;;;;;6126003;23;20021;-68
2023/08/02 10:31:25;;;;;;;1078.13;986.17;;;;;;;;;;6126120;23;20022;-68
2023/08/02 10:33:51;;;;;;;1093.25;997.83;;;;;;;;;;6124748;23;20022;-68
2023/08/02 10:36:18;;;;;;;1083.22;989.42;;;;;;;;;;6126098;23;20020;-71
2023/08/02 10:38:46;;;;;;;1071.43;980.00;;;;;;;;;;6124547;23;20022;-68
2023/08/02 10:41:17;;;;;;;1077.47;985.78;;;;;;;;;;6124406;23;20022;-68
2023/08/02 10:43:53;;;;;;;1069.72;978.20;;;;;;;;;;6123932;23;20024;-69
2023/08/02 10:46:24;;;;;;;1075.57;983.80;;;;;;;;;;6125389;23;20318;-69
2023/08/02 10:48:51;;;;;;;1071.80;980.17;;;;;;;;;;6125256;23;20022;-69
2023/08/02 10:51:37;;;;;;;1081.60;984.47;;;;;;;;;;6125370;23;20037;-72
2023/08/02 10:54:21;;;;;;;1067.85;978.05;;;;;;;;;;6124428;23;20028;-78
2023/08/02 10:56:51;;;;;;;1064.57;974.55;;;;;;;;;;6124731;23;20018;-69
2023/08/02 10:59:24;;;;;;;1078.72;986.95;;;;;;;;;;6124163;23;20029;-69
2023/08/02 11:01:51;;;;;;;;;;;;;;;;;;6126018;23;20085;-68
2023/08/02 11:04:19;;;;;;;1063.47;972.63;;;;;;;;;;6125414;23;19921;-69
2023/08/02 11:06:45;;;;;;;1068.43;977.03;;;;;;;;;;6125454;23;20014;-69
2023/08/02 11:09:12;;;;;;;1092.30;994.40;;;;;;;;;;6099448;23;20033;-69
2023/08/02 11:11:39;;;;;;;1085.47;993.28;;;;;;;;;;6125540;23;20021;-68
2023/08/02 11:14:05;;;;;;;1089.07;996.70;;;;;;;;;;6125610;23;20087;-68
2023/08/02 11:16:38;;;;;;;1093.35;997.25;;;;;;;;;;6125000;23;20475;-69
2023/08/02 11:19:12;;;;;;;1090.30;996.38;;;;;;;;;;6124926;23;20429;-76
2023/08/02 11:21:39;;;;;;;;;;;;;;;;;;6100296;23;20033;-69
2023/08/02 11:24:05;;;;;;;1097.32;999.25;;;;;;;;;;6125468;23;20332;-70
2023/08/02 11:26:32;;;;;;;1082.80;990.95;;;;;;;;;;6125452;23;20468;-69
2023/08/02 11:29:06;;;;;;;1085.35;992.63;;;;;;;;;;6098996;23;20053;-70
2023/08/02 11:31:33;;;;;;;1085.75;992.95;;;;;;;;;;6099312;23;20454;-73
2023/08/02 11:34:02;;;;;;;1087.90;995.13;;;;;;;;;;6125215;23;20018;-69
2023/08/02 11:36:33;;;;;;;1093.28;998.20;;;;;;;;;;6124968;23;20018;-69
2023/08/02 11:39:00;;;;;;;1094.93;998.47;;;;;;;;;;6099676;23;20022;-71
2023/08/02 11:41:27;;;;;;;1096.43;999.15;;;;;;;;;;6124674;23;20122;-70
2023/08/02 11:43:53;;;;;;;1088.43;994.97;;;;;;;;;;6099178;23;20387;-72
2023/08/02 11:46:21;;;;;;;1092.15;997.20;;;;;;;;;;6125163;23;20018;-69
2023/08/02 11:48:48;;;;;;;1093.22;998.72;;;;;;;;;;6124852;23;20447;-69
2023/08/02 11:51:16;;;;;;;1108.93;999.90;;;;;;;;;;6125154;23;20379;-69
2023/08/02 11:53:49;;;;;;;1097.53;999.47;;;;;;;;;;6099746;23;20022;-69
2023/08/02 11:56:16;;;;;;;1102.22;999.90;;;;;;;;;;6099403;23;20061;-71
2023/08/02 11:58:44;;;;;;;1109.05;999.90;;;;;;;;;;6124862;23;20092;-70
2023/08/02 12:01:12;;;;;;;1112.95;999.90;;;;;;;;;;6125225;23;20045;-70
2023/08/02 12:03:51;;;;;;;1105.80;999.90;;;;;;;;;;6075447;23;20025;-69
2023/08/02 12:06:17;;;;;;;1116.53;999.90;;;;;;;;;;6099289;23;20022;-70
2023/08/02 12:08:51;;;;;;;1111.72;999.90;;;;;;;;;;6099331;23;20018;-69
2023/08/02 12:11:18;;;;;;;1115.00;999.90;;;;;;;;;;6099130;23;20025;-71
2023/08/02 12:13:45;;;;;;;1117.97;999.90;;;;;;;;;;6124662;23;20044;-69
2023/08/02 12:16:13;;;;;;;1102.18;999.90;;;;;;;;;;6125378;23;20022;-71
2023/08/02 12:18:49;;;;;;;1117.03;999.90;;;;;;;;;;6125187;23;20014;-70
2023/08/02 12:21:16;;;;;;;1126.90;999.90;;;;;;;;;;6099075;23;20014;-70
2023/08/02 12:23:43;;;;;;;1116.47;999.90;;;;;;;;;;6125073;23;20056;-69
2023/08/02 12:26:09;;;;;;;1121.75;999.90;;;;;;;;;;6098874;23;20014;-71
2023/08/02 12:28:43;;;;;;;1121.28;999.90;;;;;;;;;;6124824;23;20026;-71
2023/08/02 12:31:10;;;;;;;1117.63;999.90;;;;;;;;;;6124501;23;20032;-69
2023/08/02 12:33:37;;;;;;;1121.45;999.90;;;;;;;;;;6098940;23;20096;-70
2023/08/02 12:36:04;;;;;;;1109.82;999.90;;;;;;;;;;6099559;23;20041;-70
2023/08/02 12:38:31;;;;;;;1117.72;999.90;;;;;;;;;;6099159;23;20041;-69
2023/08/02 12:40:58;;;;;;;1118.90;999.90;;;;;;;;;;6124500;23;20034;-71
2023/08/02 12:43:25;;;;;;;1128.97;999.90;;;;;;;;;;6124581;23;20065;-69
2023/08/02 12:45:52;;;;;;;1120.80;999.90;;;;;;;;;;6098791;23;20187;-69
2023/08/02 12:48:19;;;;;;;1123.75;999.90;;;;;;;;;;6098798;23;20457;-70
2023/08/02 12:50:46;;;;;;;1114.43;999.90;;;;;;;;;;6125295;23;20105;-70
2023/08/02 12:53:12;;;;;;;1110.30;999.90;;;;;;;;;;6124654;23;20052;-69
2023/08/02 12:55:40;;;;;;;1099.25;999.80;;;;;;;;;;6098618;23;20026;-72
2023/08/02 12:58:07;;;;;;;1105.18;999.90;;;;;;;;;;6124832;23;20037;-69
2023/08/02 13:00:33;;;;;;;1119.15;999.90;;;;;;;;;;6099154;23;20037;-69
2023/08/02 13:03:00;;;;;;;1120.25;999.90;;;;;;;;;;6098593;23;20018;-69
2023/08/02 13:05:27;;;;;;;1109.20;999.90;;;;;;;;;;6124269;23;20093;-71
2023/08/02 13:07:54;;;;;;;1105.40;999.90;;;;;;;;;;6124262;23;20042;-69
2023/08/02 13:10:20;;;;;;;1105.43;999.90;;;;;;;;;;6124605;23;20102;-69
2023/08/02 13:12:47;;;;;;;1107.78;999.90;;;;;;;;;;6124879;23;20018;-71
2023/08/02 13:15:14;;;;;;;1116.68;999.90;;;;;;;;;;6124248;23;20393;-69
2023/08/02 13:17:42;;;;;;;1098.38;999.33;;;;;;;;;;6099036;23;20014;-69
2023/08/02 13:20:09;;;;;;;1101.68;999.90;;;;;;;;;;6124218;23;20083;-72
2023/08/02 13:22:36;;;;;;;1104.53;999.90;;;;;;;;;;6098463;23;20018;-70
2023/08/02 13:25:03;;;;;;;1107.93;999.90;;;;;;;;;;6097976;23;20026;-69
2023/08/02 13:27:32;;;;;;;1111.85;999.90;;;;;;;;;;6124464;23;20064;-70
2023/08/02 13:30:00;;;;;;;1111.00;999.90;;;;;;;;;;6098842;23;20348;-71
2023/08/02 13:32:28;;;;;;;1105.18;999.90;;;;;;;;;;6124313;23;20010;-69
2023/08/02 13:34:55;;;;;;;1103.60;999.90;;;;;;;;;;6098392;23;20017;-73
2023/08/02 13:37:25;;;;;;;1118.82;999.90;;;;;;;;;;6124186;23;20053;-70
2023/08/02 13:39:53;;;;;;;1103.63;999.90;;;;;;;;;;6123909;23;20025;-69
2023/08/02 13:42:19;;;;;;;1095.10;997.42;;;;;;;;;;6098903;23;20029;-69
2023/08/02 13:44:46;;;;;;;1091.85;995.58;;;;;;;;;;6126788;23;20089;-69
2023/08/02 13:47:13;;;;;;;1086.75;993.38;;;;;;;;;;6126024;23;20022;-74
2023/08/02 13:49:39;;;;;;;1084.47;991.97;;;;;;;;;;6100141;23;20030;-69